The Sea Ranch, CA (95497)

5:45 AM PDT on April 24, 2017 (GMT -0700)
Unit 36A, White Barn, The Sea Ranch, CA 95497 | | Change Station

Elev 67 ft 38.71 °N, 123.46 °W | Updated 14 seconds ago

Overcast
Overcast
55.3 °F
Feels Like 55.3 °F
N
1.2
Wind Variable Wind from South
Gusts 2.1 mph

Today
High -- | Low -- °F
--% Chance of Precip.
Yesterday
High -- | Low -- °F
Precip. -- in
Pressure 30.00 in
Visibility 10.0 miles
Clouds Scattered Clouds 2200 ft
Mostly Cloudy 2700 ft
Overcast 3200 ft
Dew Point 54 °F
Humidity 94%
Rainfall 0.00 in
Snow Depth Not available.
6:24 AM 7:59 PM
Waning Crescent, 6% visible
SPECI KUKI 241218Z AUTO 29005KT 10SM SCT022 BKN027 OVC032 09/07 A3000 RMK AO2 T00940067
Pressure 30.00 in
Visibility 10.0 miles
Clouds Scattered Clouds 2200 ft
Mostly Cloudy 2700 ft
Overcast 3200 ft
Dew Point 54 °F
Humidity 94%
Rainfall 0.00 in
Snow Depth Not available.
6:24 AM 7:59 PM
Waning Crescent, 6% visible
SPECI KUKI 241218Z AUTO 29005KT 10SM SCT022 BKN027 OVC032 09/07 A3000 RMK AO2 T00940067

Get Severe Weather Alerts

Thanks for signing up!

Be on the lookout for a verification email in your inbox.

You'll start receiving the daily forecast at 8 AM.

×

10-Day Weather Forecast

Almanac

Astronomy

Apr. 24, 2017 Rise Set
Actual Time
Civil Twilight
Nautical Twilight
Astronomical Twilight
Moon
Length of Visible Light
Length of Day
Tomorrow will be .
, % of the Moon is Illuminated

Today's Extremes

State Highs State Lows

Community

WunderPhotos

WunderBlog® & News

Nearby

Air Quality

  Air Quality AQ Index Pollutant
Not available.

Snow Depth

Station Depth Elevation

Earthquake Activity

City Distance Mag. Time & Date
Minimum magnitude displayed is 2.5.

Coastal Water Temperatures

Place Temperature

Stations

Nearby Weather Stations

Station Location Temp. Windchill Dew Point Humidity Wind Precip. Elev Updated Type
                   

Watches & Warnings

There are currently no watches in effect.